createdAt,value
2018-10-07T00:01:51.373Z,17.30
2018-10-07T00:04:19.064Z,17.30
2018-10-07T00:06:46.747Z,17.30
2018-10-07T00:09:14.392Z,17.20
2018-10-07T00:11:43.059Z,17.20
2018-10-07T00:14:10.789Z,17.20
2018-10-07T00:16:38.469Z,17.20
2018-10-07T00:19:06.097Z,17.20
2018-10-07T00:21:33.740Z,17.20
2018-10-07T00:24:01.388Z,17.20
2018-10-07T00:26:28.985Z,17.20
2018-10-07T00:28:56.625Z,17.20
2018-10-07T00:31:24.337Z,17.20
2018-10-07T00:33:51.971Z,17.20
2018-10-07T00:36:20.390Z,17.20
2018-10-07T00:38:48.856Z,17.20
2018-10-07T00:41:17.410Z,17.20
2018-10-07T00:43:45.978Z,17.20
2018-10-07T00:46:14.359Z,17.20
2018-10-07T00:48:42.796Z,17.20
2018-10-07T00:51:11.326Z,17.30
2018-10-07T00:53:39.858Z,17.30
2018-10-07T00:56:08.329Z,17.30
2018-10-07T00:58:36.738Z,17.30
2018-10-07T01:01:05.259Z,17.30
2018-10-07T01:03:33.749Z,17.30
2018-10-07T01:06:02.259Z,17.30
2018-10-07T01:08:30.682Z,17.30
2018-10-07T01:10:59.043Z,17.30
2018-10-07T01:13:27.438Z,17.30
2018-10-07T01:15:55.910Z,17.30
2018-10-07T01:18:24.289Z,17.30
2018-10-07T01:20:52.768Z,17.30
2018-10-07T01:23:21.162Z,17.20
2018-10-07T01:25:49.565Z,17.20
2018-10-07T01:28:18.029Z,17.20
2018-10-07T01:30:46.495Z,17.20
2018-10-07T01:33:14.886Z,17.20
2018-10-07T01:35:43.362Z,17.20
2018-10-07T01:38:11.834Z,17.10
2018-10-07T01:40:40.242Z,17.20
2018-10-07T01:43:08.646Z,17.20
2018-10-07T01:45:37.050Z,17.20
2018-10-07T01:48:05.829Z,17.10
2018-10-07T01:50:34.252Z,17.10
2018-10-07T01:53:02.636Z,17.10
2018-10-07T01:55:31.102Z,17.10
2018-10-07T01:57:59.471Z,17.10
2018-10-07T02:00:27.967Z,17.10
2018-10-07T02:02:56.342Z,17.10
2018-10-07T02:05:24.764Z,17.10
2018-10-07T02:07:53.299Z,17.10
2018-10-07T02:10:21.708Z,17.10
2018-10-07T02:12:50.134Z,17.10
2018-10-07T02:15:18.658Z,17.20
2018-10-07T02:17:47.126Z,17.20
2018-10-07T02:20:15.521Z,17.20
2018-10-07T02:22:43.891Z,17.20
2018-10-07T02:25:12.392Z,17.20
2018-10-07T02:27:40.890Z,17.20
2018-10-07T02:30:09.433Z,17.10
2018-10-07T02:32:37.786Z,17.10
2018-10-07T02:35:06.346Z,17.10
2018-10-07T02:37:34.739Z,17.00
2018-10-07T02:40:03.259Z,17.00
2018-10-07T02:42:31.634Z,17.00
2018-10-07T02:45:00.059Z,16.90
2018-10-07T02:47:28.623Z,17.00
2018-10-07T02:49:57.065Z,16.90
2018-10-07T02:52:30.884Z,16.90
2018-10-07T02:54:59.406Z,16.90
2018-10-07T02:57:28.193Z,16.80
2018-10-07T02:59:56.730Z,16.80
2018-10-07T03:02:25.163Z,16.80
2018-10-07T03:04:53.571Z,16.80
2018-10-07T03:07:22.019Z,16.70
2018-10-07T03:09:50.490Z,16.70
2018-10-07T03:12:18.923Z,16.70
2018-10-07T03:14:47.438Z,16.60
2018-10-07T03:17:15.989Z,16.60
2018-10-07T03:19:44.380Z,16.50
2018-10-07T03:22:12.787Z,16.50
2018-10-07T03:24:41.190Z,16.50
2018-10-07T03:27:09.667Z,16.40
2018-10-07T03:29:38.105Z,16.40
2018-10-07T03:32:06.740Z,16.30
2018-10-07T03:34:35.226Z,16.30
2018-10-07T03:37:04.457Z,16.30
2018-10-07T03:39:32.877Z,16.20
2018-10-07T03:42:01.261Z,16.20
2018-10-07T03:44:29.766Z,16.20
2018-10-07T03:46:58.274Z,16.10
2018-10-07T03:49:26.754Z,16.10
2018-10-07T03:51:55.327Z,16.10
2018-10-07T03:54:23.692Z,16.00
2018-10-07T03:56:52.093Z,16.00
2018-10-07T03:59:20.590Z,16.00
2018-10-07T04:01:49.139Z,16.00
2018-10-07T04:04:17.554Z,15.90
2018-10-07T04:06:46.062Z,16.00
2018-10-07T04:09:14.454Z,15.90
2018-10-07T04:11:43.567Z,15.90
2018-10-07T04:14:13.059Z,15.90
2018-10-07T04:16:41.437Z,15.90
2018-10-07T04:19:10.943Z,15.80
2018-10-07T04:21:43.054Z,15.80
2018-10-07T04:24:11.749Z,15.80
2018-10-07T04:26:40.267Z,15.80
2018-10-07T04:29:08.774Z,15.80
2018-10-07T04:31:37.234Z,15.70
2018-10-07T04:34:05.727Z,15.70
2018-10-07T04:36:34.142Z,15.70
2018-10-07T04:39:02.689Z,15.70
2018-10-07T04:41:31.027Z,15.60
2018-10-07T04:43:59.479Z,15.70
2018-10-07T04:46:27.976Z,15.70
2018-10-07T04:48:56.341Z,15.70
2018-10-07T04:51:24.839Z,15.70
2018-10-07T04:53:53.250Z,15.60
2018-10-07T04:56:21.618Z,15.60
2018-10-07T04:58:50.109Z,15.60
2018-10-07T05:01:18.558Z,15.60
2018-10-07T05:03:47.075Z,15.60
2018-10-07T05:06:15.678Z,15.60
2018-10-07T05:08:44.130Z,15.70
2018-10-07T05:11:13.010Z,15.70
2018-10-07T05:13:55.609Z,15.70
2018-10-07T05:16:49.424Z,15.70
2018-10-07T05:19:17.864Z,15.70
2018-10-07T05:21:46.424Z,15.70
2018-10-07T05:24:14.964Z,15.70
2018-10-07T05:26:43.507Z,15.70
2018-10-07T05:29:11.963Z,15.70
2018-10-07T05:31:40.455Z,15.70
2018-10-07T05:34:08.958Z,15.70
2018-10-07T05:36:37.475Z,15.60
2018-10-07T05:39:08.291Z,15.70
2018-10-07T05:41:36.839Z,15.60
2018-10-07T05:44:05.350Z,15.60
2018-10-07T05:46:33.882Z,15.60
2018-10-07T05:49:02.246Z,15.60
2018-10-07T05:51:30.811Z,15.60
2018-10-07T05:53:59.355Z,15.60
2018-10-07T05:56:27.991Z,15.60
2018-10-07T05:58:57.909Z,15.60
2018-10-07T06:01:36.884Z,15.70
2018-10-07T06:04:11.585Z,15.60
2018-10-07T06:06:40.378Z,15.70
2018-10-07T06:09:12.903Z,15.70
2018-10-07T06:11:41.501Z,15.70
2018-10-07T06:14:21.722Z,15.70
2018-10-07T06:16:50.294Z,15.70
2018-10-07T06:19:18.792Z,15.70
2018-10-07T06:21:47.223Z,15.70
2018-10-07T06:24:15.781Z,15.70
2018-10-07T06:26:44.253Z,15.70
2018-10-07T06:29:12.710Z,15.70
2018-10-07T06:31:41.130Z,15.70
2018-10-07T06:34:09.562Z,15.80
2018-10-07T06:36:38.081Z,15.80
2018-10-07T06:39:06.478Z,15.90
2018-10-07T06:41:35.117Z,15.90
2018-10-07T06:44:03.733Z,16.00
2018-10-07T06:46:32.151Z,16.00
2018-10-07T06:49:00.671Z,16.10
2018-10-07T06:51:29.274Z,16.20
2018-10-07T06:53:57.694Z,16.20
2018-10-07T06:56:26.282Z,16.20
2018-10-07T06:58:54.831Z,16.20
2018-10-07T07:01:23.342Z,16.30
2018-10-07T07:03:52.242Z,16.40
2018-10-07T07:06:20.820Z,16.50
2018-10-07T07:08:49.240Z,16.50
2018-10-07T07:11:17.769Z,16.60
2018-10-07T07:13:46.279Z,16.70
2018-10-07T07:16:14.773Z,16.70
2018-10-07T07:18:43.218Z,16.80
2018-10-07T07:21:12.435Z,16.90
2018-10-07T07:23:41.309Z,16.90
2018-10-07T07:26:09.920Z,17.00
2018-10-07T07:28:38.383Z,17.00
2018-10-07T07:31:06.946Z,17.00
2018-10-07T07:33:35.372Z,17.10
2018-10-07T07:36:03.814Z,17.20
2018-10-07T07:38:32.232Z,17.20
2018-10-07T07:41:00.814Z,17.40
2018-10-07T07:43:29.334Z,17.40
2018-10-07T07:45:57.865Z,17.50
2018-10-07T07:48:26.441Z,17.50
2018-10-07T07:50:55.129Z,17.60
2018-10-07T07:53:23.589Z,17.70
2018-10-07T07:55:52.070Z,17.80
2018-10-07T07:58:20.602Z,17.80
2018-10-07T08:00:49.143Z,17.90
2018-10-07T08:03:17.691Z,17.90
2018-10-07T08:05:46.113Z,18.00
2018-10-07T08:08:14.493Z,18.10
2018-10-07T08:10:42.995Z,18.10
2018-10-07T08:13:11.458Z,18.20
2018-10-07T08:15:39.961Z,18.20
2018-10-07T08:18:08.452Z,18.30
2018-10-07T08:20:36.998Z,18.40
2018-10-07T08:23:05.511Z,18.40
2018-10-07T08:25:33.917Z,18.50
2018-10-07T08:28:02.342Z,18.60
2018-10-07T08:30:30.699Z,18.70
2018-10-07T08:32:59.116Z,18.80
2018-10-07T08:35:27.578Z,18.90
2018-10-07T08:37:55.995Z,19.00
2018-10-07T08:40:24.411Z,19.10
2018-10-07T08:42:52.986Z,19.30
2018-10-07T08:45:21.431Z,19.40
2018-10-07T08:47:49.887Z,19.40
2018-10-07T08:50:18.307Z,19.50
2018-10-07T08:52:46.824Z,19.50
2018-10-07T08:55:15.285Z,19.60
2018-10-07T08:57:43.823Z,19.60
2018-10-07T09:00:12.378Z,19.60
2018-10-07T09:02:40.854Z,19.70
2018-10-07T09:05:09.407Z,19.80
2018-10-07T09:07:37.905Z,19.90
2018-10-07T09:10:06.480Z,20.00
2018-10-07T09:12:34.909Z,20.00
2018-10-07T09:15:03.349Z,20.10
2018-10-07T09:17:32.043Z,20.10
2018-10-07T09:20:00.501Z,20.10
2018-10-07T09:22:28.995Z,20.20
2018-10-07T09:24:57.433Z,20.20
2018-10-07T09:27:25.991Z,20.20
2018-10-07T09:29:54.590Z,20.10
2018-10-07T09:32:23.194Z,20.00
2018-10-07T09:34:51.610Z,20.00
2018-10-07T09:37:20.050Z,20.00
2018-10-07T09:39:48.607Z,19.90
2018-10-07T09:42:17.114Z,19.90
2018-10-07T09:44:45.761Z,19.80
2018-10-07T09:47:14.330Z,19.80
2018-10-07T09:49:42.795Z,19.70
2018-10-07T09:52:11.450Z,19.70
2018-10-07T09:54:39.981Z,19.70
2018-10-07T09:57:08.602Z,19.70
2018-10-07T09:59:37.000Z,19.60
2018-10-07T10:02:05.645Z,19.60
2018-10-07T10:04:34.254Z,19.60
2018-10-07T10:07:02.694Z,19.60
2018-10-07T10:09:31.365Z,19.60
2018-10-07T10:11:59.942Z,19.60
2018-10-07T10:14:28.584Z,19.60
2018-10-07T10:17:06.545Z,19.60
2018-10-07T10:20:12.238Z,19.70
2018-10-07T10:22:57.071Z,20.00
2018-10-07T10:25:46.657Z,20.30
2018-10-07T10:28:17.651Z,20.30
2018-10-07T10:31:00.197Z,20.30
2018-10-07T10:33:32.159Z,20.30
2018-10-07T10:36:11.305Z,20.30
2018-10-07T10:38:47.081Z,20.40
2018-10-07T10:41:26.259Z,20.70
2018-10-07T10:43:57.449Z,21.10
2018-10-07T10:46:37.624Z,21.40
2018-10-07T10:49:19.705Z,21.80
2018-10-07T10:52:06.809Z,22.10
2018-10-07T10:54:44.926Z,22.40
2018-10-07T10:57:17.707Z,22.80
2018-10-07T10:59:59.958Z,23.10
2018-10-07T11:03:35.744Z,23.30
2018-10-07T11:06:13.012Z,23.40
2018-10-07T11:09:07.510Z,23.70
2018-10-07T11:13:18.067Z,23.90
2018-10-07T11:16:52.297Z,24.20
2018-10-07T11:19:32.565Z,24.40
2018-10-07T11:24:15.455Z,24.60
2018-10-07T11:27:02.598Z,24.60
2018-10-07T11:29:49.395Z,24.80
2018-10-07T11:33:26.149Z,25.00
2018-10-07T11:36:04.453Z,25.10
2018-10-07T11:39:12.249Z,25.30
2018-10-07T11:41:46.513Z,25.50
2018-10-07T11:44:22.554Z,25.60
2018-10-07T11:47:26.013Z,25.60
2018-10-07T11:50:08.979Z,25.80
2018-10-07T11:52:57.262Z,25.80
2018-10-07T11:55:25.689Z,25.90
2018-10-07T11:57:54.245Z,26.00
2018-10-07T12:00:22.823Z,26.10
2018-10-07T12:02:51.330Z,26.20
2018-10-07T12:05:19.760Z,26.30
2018-10-07T12:07:48.222Z,26.40
2018-10-07T12:10:16.737Z,26.50
2018-10-07T12:12:45.225Z,26.70
2018-10-07T12:15:13.698Z,26.70
2018-10-07T12:17:42.173Z,26.90
2018-10-07T12:20:10.834Z,26.90
2018-10-07T12:22:39.233Z,27.00
2018-10-07T12:25:07.782Z,26.90
2018-10-07T12:27:36.235Z,26.90
2018-10-07T12:30:04.907Z,27.00
2018-10-07T12:32:33.395Z,27.10
2018-10-07T12:35:02.267Z,27.20
2018-10-07T12:37:30.730Z,27.10
2018-10-07T12:39:59.183Z,27.20
2018-10-07T12:42:27.827Z,27.30
2018-10-07T12:44:56.282Z,27.40
2018-10-07T12:47:24.908Z,27.50
2018-10-07T12:49:53.275Z,27.50
2018-10-07T12:52:21.712Z,27.60
2018-10-07T12:54:50.179Z,27.50
2018-10-07T12:57:18.641Z,27.30
2018-10-07T12:59:47.047Z,27.30
2018-10-07T13:02:15.659Z,27.30
2018-10-07T13:04:44.086Z,27.40
2018-10-07T13:07:12.576Z,27.40
2018-10-07T13:09:41.157Z,27.50
2018-10-07T13:12:09.621Z,27.60
2018-10-07T13:14:38.182Z,27.60
2018-10-07T13:17:07.044Z,27.70
2018-10-07T13:19:35.503Z,27.80
2018-10-07T13:22:04.062Z,27.80
2018-10-07T13:24:32.679Z,27.70
2018-10-07T13:27:01.121Z,27.80
2018-10-07T13:29:29.564Z,27.80
2018-10-07T13:31:58.021Z,27.80
2018-10-07T13:34:26.450Z,27.80
2018-10-07T13:36:55.019Z,27.80
2018-10-07T13:39:23.601Z,27.80
2018-10-07T13:41:52.008Z,27.80
2018-10-07T13:44:20.535Z,27.80
2018-10-07T13:46:49.055Z,27.80
2018-10-07T13:49:17.644Z,27.80
2018-10-07T13:51:46.060Z,27.80
2018-10-07T13:54:14.550Z,27.70
2018-10-07T13:56:43.077Z,27.70
2018-10-07T13:59:11.464Z,27.70
2018-10-07T14:01:39.950Z,27.60
2018-10-07T14:04:12.257Z,27.50
2018-10-07T14:06:40.831Z,27.50
2018-10-07T14:09:09.899Z,27.50
2018-10-07T14:11:38.452Z,27.40
2018-10-07T14:14:06.892Z,27.30
2018-10-07T14:16:35.439Z,27.20
2018-10-07T14:19:03.972Z,27.10
2018-10-07T14:21:32.471Z,27.00
2018-10-07T14:24:01.069Z,27.00
2018-10-07T14:26:29.800Z,26.90
2018-10-07T14:28:58.394Z,26.70
2018-10-07T14:31:26.923Z,26.50
2018-10-07T14:33:55.478Z,26.50
2018-10-07T14:36:24.092Z,26.40
2018-10-07T14:38:52.710Z,26.20
2018-10-07T14:41:21.175Z,26.10
2018-10-07T14:43:49.645Z,26.00
2018-10-07T14:46:18.117Z,25.90
2018-10-07T14:48:46.556Z,25.80
2018-10-07T14:51:15.045Z,25.70
2018-10-07T14:53:43.563Z,25.60
2018-10-07T14:56:12.183Z,25.50
2018-10-07T14:58:40.683Z,25.30
2018-10-07T15:01:09.179Z,25.30
2018-10-07T15:03:37.647Z,25.20
2018-10-07T15:06:06.106Z,25.10
2018-10-07T15:08:34.558Z,25.00
2018-10-07T15:11:03.006Z,24.90
2018-10-07T15:13:31.440Z,24.80
2018-10-07T15:16:00.124Z,24.80
2018-10-07T15:18:28.654Z,24.70
2018-10-07T15:20:58.274Z,24.60
2018-10-07T15:23:26.796Z,24.50
2018-10-07T15:25:55.399Z,24.40
2018-10-07T15:28:24.161Z,24.40
2018-10-07T15:30:52.662Z,24.30
2018-10-07T15:33:21.127Z,24.20
2018-10-07T15:35:49.647Z,24.20
2018-10-07T15:38:18.036Z,24.10
2018-10-07T15:40:46.453Z,24.10
2018-10-07T15:43:14.977Z,24.00
2018-10-07T15:45:43.443Z,24.00
2018-10-07T15:48:11.871Z,23.90
2018-10-07T15:50:40.272Z,23.80
2018-10-07T15:53:08.866Z,23.80
2018-10-07T15:55:38.371Z,23.80
2018-10-07T15:58:06.860Z,23.70
2018-10-07T16:00:35.687Z,23.70
2018-10-07T16:03:04.235Z,23.60
2018-10-07T16:05:32.778Z,23.60
2018-10-07T16:08:01.381Z,23.50
2018-10-07T16:10:29.881Z,23.50
2018-10-07T16:12:58.920Z,23.50
2018-10-07T16:15:27.408Z,23.40
2018-10-07T16:17:55.868Z,23.40
2018-10-07T16:20:24.389Z,23.30
2018-10-07T16:22:52.963Z,23.30
2018-10-07T16:25:21.519Z,23.30
2018-10-07T16:27:50.203Z,23.20
2018-10-07T16:30:19.000Z,23.20
2018-10-07T16:32:47.383Z,23.20
2018-10-07T16:35:16.031Z,23.10
2018-10-07T16:37:44.650Z,23.10
2018-10-07T16:40:13.167Z,23.00
2018-10-07T16:42:41.862Z,23.00
2018-10-07T16:45:10.400Z,22.90
2018-10-07T16:47:38.825Z,22.80
2018-10-07T16:50:07.805Z,22.80
2018-10-07T16:52:36.294Z,22.70
2018-10-07T16:55:04.859Z,22.60
2018-10-07T16:57:33.227Z,22.50
2018-10-07T17:00:01.891Z,22.50
2018-10-07T17:02:30.543Z,22.40
2018-10-07T17:04:59.271Z,22.40
2018-10-07T17:07:27.934Z,22.40
2018-10-07T17:09:56.483Z,22.30
2018-10-07T17:12:25.079Z,22.30
2018-10-07T17:14:53.882Z,22.20
2018-10-07T17:17:29.014Z,22.20
2018-10-07T17:19:57.434Z,22.20
2018-10-07T17:22:25.944Z,22.20
2018-10-07T17:24:54.461Z,22.10
2018-10-07T17:27:22.958Z,22.00
2018-10-07T17:29:51.389Z,21.90
2018-10-07T17:32:19.959Z,21.90
2018-10-07T17:34:48.511Z,21.80
2018-10-07T17:37:16.974Z,21.70
2018-10-07T17:39:45.493Z,21.70
2018-10-07T17:42:14.059Z,21.60
2018-10-07T17:44:42.440Z,21.60
2018-10-07T17:47:10.920Z,21.50
2018-10-07T17:49:39.366Z,21.50
2018-10-07T17:52:07.888Z,21.40
2018-10-07T17:54:36.483Z,21.40
2018-10-07T17:57:05.110Z,21.30
2018-10-07T17:59:33.779Z,21.30
2018-10-07T18:02:02.875Z,21.30
2018-10-07T18:04:31.439Z,21.20
2018-10-07T18:06:59.822Z,21.20
2018-10-07T18:09:28.344Z,21.20
2018-10-07T18:11:56.761Z,21.20
2018-10-07T18:14:25.249Z,21.20
2018-10-07T18:16:53.741Z,21.20
2018-10-07T18:19:22.331Z,21.20
2018-10-07T18:21:51.281Z,21.10
2018-10-07T18:24:20.064Z,21.10
2018-10-07T18:26:48.645Z,21.10
2018-10-07T18:29:17.192Z,21.10
2018-10-07T18:31:45.860Z,21.10
2018-10-07T18:34:14.416Z,21.00
2018-10-07T18:36:42.964Z,21.00
2018-10-07T18:39:11.414Z,20.90
2018-10-07T18:41:40.244Z,20.90
2018-10-07T18:44:09.089Z,20.80
2018-10-07T18:46:37.648Z,20.80
2018-10-07T18:49:06.578Z,20.70
2018-10-07T18:51:34.943Z,20.70
2018-10-07T18:54:03.413Z,20.60
2018-10-07T18:56:32.353Z,20.60
2018-10-07T18:59:00.887Z,20.60
2018-10-07T19:01:29.614Z,20.60
2018-10-07T19:03:58.334Z,20.60
2018-10-07T19:06:26.870Z,20.60
2018-10-07T19:08:55.324Z,20.50
2018-10-07T19:11:23.745Z,20.40
2018-10-07T19:13:52.284Z,20.40
2018-10-07T19:16:20.928Z,20.40
2018-10-07T19:18:49.528Z,20.30
2018-10-07T19:21:18.037Z,20.30
2018-10-07T19:23:46.424Z,20.30
2018-10-07T19:26:14.941Z,20.30
2018-10-07T19:28:43.580Z,20.30
2018-10-07T19:31:12.064Z,20.30
2018-10-07T19:33:40.599Z,20.20
2018-10-07T19:36:09.135Z,20.20
2018-10-07T19:38:37.782Z,20.20
2018-10-07T19:41:06.454Z,20.20
2018-10-07T19:43:35.189Z,20.10
2018-10-07T19:46:03.864Z,20.10
2018-10-07T19:48:32.311Z,20.20
2018-10-07T19:51:00.820Z,20.10
2018-10-07T19:53:29.407Z,20.10
2018-10-07T19:55:58.046Z,20.10
2018-10-07T19:58:26.666Z,20.00
2018-10-07T20:00:55.719Z,20.00
2018-10-07T20:03:24.567Z,20.00
2018-10-07T20:05:53.297Z,20.00
2018-10-07T20:08:22.372Z,19.90
2018-10-07T20:10:51.198Z,19.90
2018-10-07T20:13:19.792Z,19.90
2018-10-07T20:15:48.190Z,19.80
2018-10-07T20:18:16.950Z,19.80
2018-10-07T20:20:45.458Z,19.80
2018-10-07T20:23:14.313Z,19.80
2018-10-07T20:25:42.891Z,19.70
2018-10-07T20:28:11.777Z,19.70
2018-10-07T20:30:40.389Z,19.60
2018-10-07T20:33:08.883Z,19.60
2018-10-07T20:35:37.382Z,19.60
2018-10-07T20:38:07.249Z,19.50
2018-10-07T20:40:36.203Z,19.50
2018-10-07T20:43:04.682Z,19.50
2018-10-07T20:45:33.118Z,19.40
2018-10-07T20:48:01.515Z,19.40
2018-10-07T20:50:29.959Z,19.30
2018-10-07T20:52:58.453Z,19.30
2018-10-07T20:55:27.010Z,19.20
2018-10-07T20:57:55.480Z,19.20
2018-10-07T21:00:23.927Z,19.10
2018-10-07T21:02:52.478Z,19.00
2018-10-07T21:05:20.962Z,19.00
2018-10-07T21:07:49.595Z,18.90
2018-10-07T21:10:18.034Z,18.90
2018-10-07T21:12:46.618Z,18.90
2018-10-07T21:15:15.178Z,18.90
2018-10-07T21:17:43.584Z,18.90
2018-10-07T21:20:12.131Z,18.90
2018-10-07T21:22:40.565Z,18.90
2018-10-07T21:25:08.966Z,18.80
2018-10-07T21:27:37.385Z,18.80
2018-10-07T21:30:06.105Z,18.70
2018-10-07T21:32:34.737Z,18.70
2018-10-07T21:35:03.230Z,18.70
2018-10-07T21:37:31.795Z,18.70
2018-10-07T21:40:00.314Z,18.60
2018-10-07T21:42:28.723Z,18.60
2018-10-07T21:44:57.234Z,18.50
2018-10-07T21:47:25.826Z,18.40
2018-10-07T21:49:54.262Z,18.40
2018-10-07T21:52:23.098Z,18.40
2018-10-07T21:54:51.633Z,18.30
2018-10-07T21:57:20.103Z,18.30
2018-10-07T21:59:48.538Z,18.30
2018-10-07T22:02:17.035Z,18.30
2018-10-07T22:04:45.567Z,18.20
2018-10-07T22:07:14.011Z,18.20
2018-10-07T22:09:42.651Z,18.20
2018-10-07T22:12:11.078Z,18.10
2018-10-07T22:14:39.481Z,18.10
2018-10-07T22:17:08.002Z,18.00
2018-10-07T22:19:36.413Z,18.00
2018-10-07T22:22:04.870Z,18.00
2018-10-07T22:24:33.279Z,18.00
2018-10-07T22:27:01.825Z,17.90
2018-10-07T22:29:30.262Z,17.90
2018-10-07T22:31:58.674Z,17.90
2018-10-07T22:34:27.240Z,17.80
2018-10-07T22:36:55.762Z,17.80
2018-10-07T22:39:24.174Z,17.70
2018-10-07T22:41:52.607Z,17.60
2018-10-07T22:44:21.138Z,17.60
2018-10-07T22:46:49.713Z,17.60
2018-10-07T22:49:18.231Z,17.60
2018-10-07T22:51:46.726Z,17.60
2018-10-07T22:54:15.179Z,17.60
2018-10-07T22:56:43.619Z,17.60
2018-10-07T22:59:11.969Z,17.50
2018-10-07T23:01:40.530Z,17.50
2018-10-07T23:04:08.926Z,17.50
2018-10-07T23:06:37.436Z,17.50
2018-10-07T23:09:08.834Z,17.40
2018-10-07T23:11:37.411Z,17.40
2018-10-07T23:14:05.805Z,17.40
2018-10-07T23:16:34.274Z,17.30
2018-10-07T23:19:02.744Z,17.30
2018-10-07T23:21:31.143Z,17.20
2018-10-07T23:23:59.582Z,17.10
2018-10-07T23:26:28.040Z,17.10
2018-10-07T23:28:56.407Z,17.10
2018-10-07T23:31:24.850Z,17.10
2018-10-07T23:33:53.249Z,17.00
2018-10-07T23:36:21.914Z,16.90
2018-10-07T23:38:50.941Z,16.90
2018-10-07T23:41:21.455Z,16.80
2018-10-07T23:43:51.436Z,16.80
2018-10-07T23:46:21.270Z,16.70
2018-10-07T23:48:52.546Z,16.70
2018-10-07T23:51:22.099Z,16.70
2018-10-07T23:53:50.469Z,16.60
2018-10-07T23:56:18.847Z,16.60
2018-10-07T23:58:47.381Z,16.50
